Time;durP1;ratioP1;P1;durP2;ratioP2;P2;SDS_P1;SDS_P2;PMS_P1;PMS_P2;Temp;Humidity;BMP_temperature;BMP_pressure;BME280_temperature;BME280_humidity;BME280_pressure;Samples;Min_cycle;Max_cycle;Signal;HPM_P1;HPM_P2
2021/07/28 00:00:55;;;;;;;16.17;10.63;;;;;;;20.01;87.72;96066.56;5111238;28;20044;-75
2021/07/28 00:03:21;;;;;;;13.45;10.02;;;;;;;20.02;87.04;96070.91;5106283;28;20051;-75
2021/07/28 00:05:49;;;;;;;16.08;9.70;;;;;;;20.02;86.94;96076.44;5111239;28;20050;-74
2021/07/28 00:08:16;;;;;;;14.60;9.77;;;;;;;20.03;86.53;96096.56;5102670;28;20044;-75
2021/07/28 00:10:42;;;;;;;14.05;8.13;;;;;;;19.90;85.43;96101.63;5111282;28;20072;-74
2021/07/28 00:13:08;;;;;;;13.48;7.97;;;;;;;19.79;84.32;96106.28;5110747;28;20048;-75
2021/07/28 00:15:35;;;;;;;12.07;7.57;;;;;;;19.76;84.52;96118.09;5111392;28;20047;-74
2021/07/28 00:18:08;;;;;;;10.68;7.15;;;;;;;19.64;85.41;96116.44;5110999;28;20062;-75
2021/07/28 00:23:16;;;;;;;13.70;7.65;;;;;;;19.13;87.81;96103.34;5113506;28;20039;-75
2021/07/28 00:25:43;;;;;;;17.38;8.88;;;;;;;19.11;88.56;96113.97;5115134;28;20047;-75
2021/07/28 00:28:10;;;;;;;14.93;8.27;;;;;;;19.00;88.88;96121.31;5113097;28;20093;-77
2021/07/28 00:30:37;;;;;;;14.93;8.07;;;;;;;18.95;89.35;96125.25;5114921;28;20047;-77
2021/07/28 00:33:04;;;;;;;11.13;7.97;;;;;;;18.93;89.24;96127.56;5114339;28;20516;-74
2021/07/28 00:35:30;;;;;;;15.77;7.68;;;;;;;18.89;89.99;96135.00;5115131;28;20060;-75
2021/07/28 00:38:02;;;;;;;12.15;7.97;;;;;;;18.85;89.74;96136.94;5111913;28;20035;-74
2021/07/28 00:40:30;;;;;;;13.20;8.93;;;;;;;18.73;90.39;96129.69;5114780;28;20118;-74
2021/07/28 00:43:09;;;;;;;13.43;8.07;;;;;;;18.71;90.73;96125.75;5115114;28;20039;-75
2021/07/28 00:45:35;;;;;;;15.05;8.98;;;;;;;18.63;90.72;96124.03;5114553;28;20032;-75
2021/07/28 00:48:02;;;;;;;16.02;9.23;;;;;;;18.61;91.07;96124.41;5114206;28;20063;-76
2021/07/28 00:50:28;;;;;;;15.10;8.98;;;;;;;18.60;91.44;96128.34;5114503;28;20040;-74
2021/07/28 00:52:58;;;;;;;13.23;8.40;;;;;;;18.59;91.46;96128.72;5114666;28;20043;-74
2021/07/28 00:55:25;;;;;;;14.63;8.93;;;;;;;18.58;91.37;96130.66;5114082;28;20070;-80
2021/07/28 00:57:54;;;;;;;13.93;9.30;;;;;;;18.66;91.27;96134.31;5114660;28;20097;-75
2021/07/28 01:00:21;;;;;;;14.60;9.02;;;;;;;18.69;90.89;96131.63;5114072;28;20054;-74
2021/07/28 01:02:47;;;;;;;13.32;8.85;;;;;;;18.68;90.81;96126.47;5114298;28;20043;-74
2021/07/28 01:05:13;;;;;;;13.15;8.77;;;;;;;18.68;91.17;96132.00;5113852;28;20047;-75
2021/07/28 01:07:40;;;;;;;16.50;8.68;;;;;;;18.71;90.81;96143.06;5110966;28;20043;-74
2021/07/28 01:10:07;;;;;;;16.23;9.00;;;;;;;18.68;90.64;96143.81;5113774;28;20059;-74
2021/07/28 01:12:34;;;;;;;18.25;9.50;;;;;;;18.65;90.81;96138.25;5114281;28;20047;-74
2021/07/28 01:15:02;;;;;;;13.50;9.00;;;;;;;18.58;91.10;96138.94;5114198;28;20062;-74
2021/07/28 01:17:29;;;;;;;13.23;8.15;;;;;;;18.47;90.84;96138.78;5113485;28;20047;-75
2021/07/28 01:20:01;;;;;;;14.48;8.30;;;;;;;18.37;91.10;96128.41;5114111;28;20040;-74
2021/07/28 01:22:28;;;;;;;14.77;8.87;;;;;;;18.29;91.94;96121.25;5113777;28;20048;-74
2021/07/28 01:24:55;;;;;;;12.98;8.00;;;;;;;18.25;92.41;96123.94;5114083;28;20043;-75
2021/07/28 01:27:24;;;;;;;13.70;9.40;;;;;;;18.27;92.42;96123.59;5113394;28;20051;-74
2021/07/28 01:29:50;;;;;;;16.33;9.60;;;;;;;18.31;92.65;96118.09;5113918;28;20055;-75
2021/07/28 01:32:17;;;;;;;18.27;9.90;;;;;;;18.31;92.85;96107.88;5112209;28;20457;-75
2021/07/28 01:34:45;;;;;;;14.57;9.25;;;;;;;18.34;92.66;96107.13;5113758;28;20451;-75
2021/07/28 01:37:15;;;;;;;15.90;10.20;;;;;;;18.30;92.81;96103.53;5112458;28;20513;-75
2021/07/28 01:39:42;;;;;;;11.98;8.77;;;;;;;18.33;92.78;96100.03;5113910;28;20063;-75
2021/07/28 01:42:10;;;;;;;13.95;8.90;;;;;;;18.34;92.58;96090.59;5112985;28;20048;-75
2021/07/28 01:44:37;;;;;;;13.27;8.82;;;;;;;18.36;92.42;96087.47;5113766;28;20051;-75
2021/07/28 01:47:04;;;;;;;14.55;8.80;;;;;;;18.37;92.13;96087.06;5113070;28;20050;-77
2021/07/28 01:49:31;;;;;;;13.48;8.38;;;;;;;18.36;91.89;96077.22;5113464;28;20048;-77
2021/07/28 01:51:57;;;;;;;13.18;7.82;;;;;;;18.30;91.91;96077.94;5113539;28;20040;-78
2021/07/28 01:54:24;;;;;;;13.52;8.57;;;;;;;18.30;92.18;96075.19;5113055;28;20383;-76
2021/07/28 01:56:50;;;;;;;11.48;8.10;;;;;;;18.32;92.01;96073.63;5113371;28;20514;-77
2021/07/28 01:59:18;;;;;;;14.60;9.70;;;;;;;18.33;91.82;96066.97;5112536;28;20040;-77
2021/07/28 02:01:44;;;;;;;12.93;8.73;;;;;;;18.30;91.87;96073.22;5113334;28;20051;-77
2021/07/28 02:04:11;;;;;;;15.00;9.75;;;;;;;18.32;92.18;96070.88;5112650;28;20040;-77
2021/07/28 02:06:37;;;;;;;14.40;8.90;;;;;;;18.33;92.04;96061.44;5113153;28;20039;-78
2021/07/28 02:09:06;;;;;;;15.02;9.63;;;;;;;18.32;92.28;96070.88;5112034;28;20054;-76
2021/07/28 02:11:32;;;;;;;15.05;8.85;;;;;;;18.34;92.35;96078.78;5113070;28;20059;-77
2021/07/28 02:13:58;;;;;;;11.93;7.70;;;;;;;18.35;91.65;96075.63;5113141;28;20043;-77
2021/07/28 02:16:26;;;;;;;13.55;8.05;;;;;;;18.35;90.90;96075.63;5112493;28;20043;-77
2021/07/28 02:18:53;;;;;;;13.77;8.85;;;;;;;18.35;91.09;96075.63;5113261;28;20055;-78
2021/07/28 02:21:19;;;;;;;11.40;8.02;;;;;;;18.31;91.64;96074.78;5112448;28;20047;-76
2021/07/28 02:23:46;;;;;;;12.88;7.90;;;;;;;18.31;91.51;96074.78;5112839;28;20043;-76
2021/07/28 02:26:12;;;;;;;11.10;7.95;;;;;;;18.30;91.65;96084.25;5112210;28;20441;-76
2021/07/28 02:28:39;;;;;;;14.75;8.63;;;;;;;18.24;91.73;96086.53;5112717;28;20516;-76
2021/07/28 02:31:05;;;;;;;11.43;8.45;;;;;;;18.24;91.85;96074.72;5112195;28;20051;-74
2021/07/28 02:33:33;;;;;;;12.68;8.88;;;;;;;18.28;92.19;96078.31;5112742;28;20100;-75
2021/07/28 02:35:59;;;;;;;14.95;9.30;;;;;;;18.29;92.31;96074.38;5112598;28;20055;-77
2021/07/28 02:38:26;;;;;;;14.02;8.70;;;;;;;18.30;92.53;96073.22;5111180;28;20444;-74
2021/07/28 02:40:52;;;;;;;12.30;7.85;;;;;;;18.35;92.27;96083.91;5112612;28;20578;-74
2021/07/28 02:43:19;;;;;;;14.80;8.10;;;;;;;18.33;91.93;96078.00;5111774;28;20051;-76
2021/07/28 02:45:45;;;;;;;14.45;8.50;;;;;;;18.30;92.20;96078.72;5112608;28;20044;-75
2021/07/28 02:48:11;;;;;;;14.18;9.07;;;;;;;18.34;92.40;96085.09;5111661;28;20380;-75
2021/07/28 02:50:39;;;;;;;12.00;8.18;;;;;;;18.34;92.49;96085.09;5112194;28;20039;-74
2021/07/28 02:53:06;;;;;;;13.18;8.88;;;;;;;18.38;92.58;96088.69;5111864;28;20048;-75
2021/07/28 02:55:32;;;;;;;13.50;8.65;;;;;;;18.40;92.41;96080.81;5112186;28;20047;-75
2021/07/28 02:57:59;;;;;;;12.73;9.35;;;;;;;18.39;92.59;96082.00;5112441;28;20092;-74
2021/07/28 03:00:25;;;;;;;11.02;8.32;;;;;;;18.42;92.58;96075.72;5111547;28;20497;-74
2021/07/28 03:02:51;;;;;;;11.07;7.88;;;;;;;18.41;92.36;96071.38;5112285;28;20494;-75
2021/07/28 03:05:18;;;;;;;16.35;8.88;;;;;;;18.38;92.66;96066.63;5111612;28;20051;-75
2021/07/28 03:07:46;;;;;;;11.50;7.55;;;;;;;18.35;92.71;96061.06;5111200;28;20047;-75
2021/07/28 03:10:13;;;;;;;15.18;8.38;;;;;;;18.31;92.71;96061.00;5111702;28;20047;-75
2021/07/28 03:12:39;;;;;;;12.63;7.88;;;;;;;18.34;92.90;96067.75;5112125;28;20065;-77
2021/07/28 03:15:08;;;;;;;14.35;8.30;;;;;;;18.37;92.89;96062.25;5111509;28;20051;-75
2021/07/28 03:17:34;;;;;;;15.05;8.43;;;;;;;18.35;92.76;96070.13;5111785;28;20043;-74
2021/07/28 03:20:01;;;;;;;12.45;7.70;;;;;;;18.33;92.21;96066.97;5111980;28;20043;-74
2021/07/28 03:22:27;;;;;;;11.82;7.40;;;;;;;18.24;92.39;96069.22;5111719;28;20051;-75
2021/07/28 03:24:55;;;;;;;11.35;7.18;;;;;;;18.26;92.51;96061.34;5111723;28;20051;-76
2021/07/28 03:27:22;;;;;;;14.25;7.78;;;;;;;18.28;92.46;96070.06;5110862;28;20098;-74
2021/07/28 03:29:48;;;;;;;13.25;7.50;;;;;;;18.26;91.97;96069.63;5111543;28;20043;-75
2021/07/28 03:32:14;;;;;;;12.50;8.05;;;;;;;18.22;92.01;96075.09;5111154;28;20054;-75
2021/07/28 03:34:41;;;;;;;12.77;8.02;;;;;;;18.22;92.13;96074.31;5111753;28;20055;-75
2021/07/28 03:37:07;;;;;;;11.93;8.23;;;;;;;18.25;92.26;96076.28;5110300;28;20694;-74
2021/07/28 03:39:34;;;;;;;13.43;8.93;;;;;;;18.21;92.33;96081.75;5111716;28;20043;-75
2021/07/28 03:42:02;;;;;;;12.40;8.48;;;;;;;18.18;92.75;96085.28;5111793;28;20065;-76
2021/07/28 03:44:28;;;;;;;11.65;8.20;;;;;;;18.21;92.70;96080.97;5111144;28;20040;-74
2021/07/28 03:46:54;;;;;;;12.95;8.13;;;;;;;18.14;92.12;96069.84;5111455;28;20109;-75
2021/07/28 03:49:21;;;;;;;11.63;8.30;;;;;;;18.12;92.17;96078.50;5110884;28;20048;-75
2021/07/28 03:51:48;;;;;;;12.60;8.40;;;;;;;18.15;91.23;96076.94;5111389;28;20490;-76
2021/07/28 03:54:14;;;;;;;10.18;7.28;;;;;;;18.16;91.07;96073.03;5110431;28;20077;-75
2021/07/28 03:56:40;;;;;;;10.75;7.18;;;;;;;18.14;91.06;96075.38;5111492;28;20043;-74
2021/07/28 03:59:08;;;;;;;13.30;7.97;;;;;;;18.14;91.36;96072.63;5110746;28;20044;-74
2021/07/28 04:01:35;;;;;;;10.80;7.70;;;;;;;18.14;91.31;96076.16;5111304;28;20039;-74
2021/07/28 04:04:01;;;;;;;11.43;7.35;;;;;;;18.17;90.91;96080.94;5110726;28;20051;-74
2021/07/28 04:06:28;;;;;;;9.32;7.50;;;;;;;18.14;90.88;96078.91;5110697;28;20043;-75
2021/07/28 04:08:54;;;;;;;9.00;7.10;;;;;;;18.18;91.19;96081.72;5109153;28;20047;-75
2021/07/28 04:11:21;;;;;;;10.70;6.43;;;;;;;18.12;90.30;96067.50;5110630;28;20406;-77
2021/07/28 04:13:47;;;;;;;9.35;5.60;;;;;;;17.99;89.03;96080.69;5111152;28;20039;-77
2021/07/28 04:16:15;;;;;;;10.40;5.15;;;;;;;17.83;89.05;96077.31;5110874;28;20051;-78
2021/07/28 04:18:41;;;;;;;7.80;5.35;;;;;;;17.74;89.82;96063.78;5111505;28;20074;-77
2021/07/28 04:21:08;;;;;;;9.15;5.43;;;;;;;17.77;90.52;96067.78;5110873;28;20047;-76
2021/07/28 04:23:34;;;;;;;12.90;5.95;;;;;;;17.79;90.77;96070.16;5111423;28;20093;-77
2021/07/28 04:26:01;;;;;;;8.57;5.53;;;;;;;17.82;90.84;96070.22;5111018;28;20051;-77
2021/07/28 04:28:27;;;;;;;9.68;5.50;;;;;;;17.80;90.77;96064.28;5110636;28;20039;-77
2021/07/28 04:30:54;;;;;;;11.05;5.70;;;;;;;17.79;90.28;96070.94;5111100;28;20043;-78
2021/07/28 04:33:21;;;;;;;8.32;5.50;;;;;;;17.77;90.36;96067.78;5110678;28;20048;-77
2021/07/28 04:35:48;;;;;;;7.10;5.60;;;;;;;17.81;90.98;96076.09;5111209;28;20044;-77
2021/07/28 04:38:15;;;;;;;10.95;5.82;;;;;;;17.74;90.88;96076.78;5110450;28;20414;-75
2021/07/28 04:40:41;;;;;;;8.60;5.60;;;;;;;17.69;91.46;96077.06;5111182;28;20042;-75
2021/07/28 04:43:08;;;;;;;8.25;5.38;;;;;;;17.66;91.83;96069.56;5110334;28;20040;-74
2021/07/28 04:45:34;;;;;;;13.20;6.05;;;;;;;17.69;92.12;96072.34;5110780;28;20040;-75
2021/07/28 04:48:00;;;;;;;8.15;5.60;;;;;;;17.71;92.31;96075.53;5111139;28;20046;-75
2021/07/28 04:50:28;;;;;;;11.38;6.30;;;;;;;17.75;92.78;96081.13;5110461;28;20047;-75
2021/07/28 04:52:55;;;;;;;14.30;6.72;;;;;;;17.76;92.91;96081.94;5110985;28;20040;-77
2021/07/28 04:55:21;;;;;;;12.23;6.82;;;;;;;17.78;93.14;96085.88;5110346;28;20047;-75
2021/07/28 04:57:47;;;;;;;10.35;7.43;;;;;;;17.79;93.19;96083.94;5110836;28;20043;-74
2021/07/28 05:00:15;;;;;;;9.93;7.35;;;;;;;17.76;92.67;96077.22;5110343;28;20047;-75
2021/07/28 05:02:41;;;;;;;13.23;7.78;;;;;;;17.78;93.09;96074.88;5110900;28;20048;-75
2021/07/28 05:05:09;;;;;;;14.32;8.55;;;;;;;17.78;93.25;96063.84;5110253;28;20513;-74
2021/07/28 05:07:37;;;;;;;20.02;8.90;;;;;;;17.79;93.78;96059.94;5113407;28;20669;-75
2021/07/28 05:10:04;;;;;;;14.55;9.27;;;;;;;17.89;94.13;96064.78;5113938;28;20048;-76
2021/07/28 05:12:30;;;;;;;16.35;8.13;;;;;;;17.97;93.82;96065.72;5114159;28;20040;-75
2021/07/28 05:14:57;;;;;;;11.23;8.57;;;;;;;18.02;93.86;96072.84;5114363;28;20383;-75
2021/07/28 05:17:24;;;;;;;13.90;9.10;;;;;;;18.09;93.91;96073.72;5113998;28;20255;-75
2021/07/28 05:19:51;;;;;;;14.52;9.07;;;;;;;18.14;94.10;96086.41;5114304;28;20039;-75
2021/07/28 05:22:17;;;;;;;18.58;8.80;;;;;;;18.15;94.20;96080.50;5113571;28;20732;-74
2021/07/28 05:24:45;;;;;;;17.23;9.35;;;;;;;18.14;93.85;96075.38;5113555;28;20065;-75
2021/07/28 05:27:12;;;;;;;14.35;9.63;;;;;;;18.14;94.08;96078.13;5113170;28;20051;-75
2021/07/28 05:29:38;;;;;;;15.75;9.18;;;;;;;18.21;94.16;96078.22;5113973;28;20047;-75
2021/07/28 05:32:05;;;;;;;19.13;10.07;;;;;;;18.20;94.16;96073.88;5113426;28;20048;-76
2021/07/28 05:34:32;;;;;;;16.45;9.75;;;;;;;18.23;94.29;96068.41;5114057;28;20402;-76
2021/07/28 05:36:58;;;;;;;15.52;10.02;;;;;;;18.23;94.12;96073.13;5113781;28;20048;-76
2021/07/28 05:39:25;;;;;;;16.42;10.23;;;;;;;18.29;94.01;96070.84;5113144;28;20044;-75
2021/07/28 05:41:53;;;;;;;13.20;8.75;;;;;;;18.33;93.75;96078.00;5113562;28;20206;-74
2021/07/28 05:44:19;;;;;;;17.08;9.77;;;;;;;18.34;93.37;96082.31;5113051;28;20063;-74
2021/07/28 05:46:45;;;;;;;11.82;8.85;;;;;;;18.39;93.31;96078.44;5113534;28;20484;-74
2021/07/28 05:49:12;;;;;;;12.05;9.18;;;;;;;18.42;93.61;96074.94;5113178;28;20101;-75
2021/07/28 05:51:38;;;;;;;16.40;9.35;;;;;;;18.46;93.56;96071.03;5113634;28;20039;-75
2021/07/28 05:54:05;;;;;;;14.93;8.55;;;;;;;18.49;93.27;96067.56;5112888;28;20096;-73
2021/07/28 05:56:31;;;;;;;18.52;9.85;;;;;;;18.52;92.95;96077.81;5113463;28;20051;-74
2021/07/28 05:58:59;;;;;;;16.73;9.20;;;;;;;18.55;92.56;96067.22;5110696;28;20046;-73
2021/07/28 06:01:25;;;;;;;14.85;8.73;;;;;;;18.52;92.62;96063.22;5111504;28;20065;-74
2021/07/28 06:03:52;;;;;;;14.10;8.23;;;;;;;18.50;92.21;96060.84;5112491;28;20406;-75
2021/07/28 06:06:18;;;;;;;14.82;8.40;;;;;;;18.51;91.93;96062.44;5112315;28;20093;-74
2021/07/28 06:08:45;;;;;;;14.32;8.65;;;;;;;18.58;91.77;96066.44;5112108;28;20486;-73
2021/07/28 06:11:11;;;;;;;11.25;7.80;;;;;;;18.63;91.20;96074.38;5112667;28;20100;-73
2021/07/28 06:13:37;;;;;;;12.80;7.47;;;;;;;18.67;90.85;96073.25;5112952;28;20043;-74
2021/07/28 06:16:05;;;;;;;15.60;8.10;;;;;;;18.69;90.89;96073.72;5111960;28;20051;-73
2021/07/28 06:18:33;;;;;;;13.57;8.27;;;;;;;18.76;90.81;96067.47;5111771;28;20043;-75
2021/07/28 06:21:00;;;;;;;12.70;7.97;;;;;;;18.79;90.92;96080.50;5111481;28;20047;-74
2021/07/28 06:23:27;;;;;;;14.98;7.63;;;;;;;18.82;91.30;96082.50;5111447;28;20093;-74
2021/07/28 06:25:53;;;;;;;11.30;7.88;;;;;;;18.90;90.95;96078.66;5111955;28;20045;-77
2021/07/28 06:28:20;;;;;;;12.00;7.60;;;;;;;18.95;90.54;96072.00;5111056;28;20044;-75
2021/07/28 06:30:46;;;;;;;11.20;7.25;;;;;;;18.99;89.74;96075.59;5093804;28;20066;-75
2021/07/28 06:33:14;;;;;;;10.95;6.93;;;;;;;18.98;89.00;96069.28;5112323;28;20051;-73
2021/07/28 06:35:40;;;;;;;12.95;8.25;;;;;;;19.01;89.08;96062.22;5112371;28;20051;-75
2021/07/28 06:38:07;;;;;;;13.05;7.45;;;;;;;19.02;89.64;96070.13;5112157;28;20498;-74
2021/07/28 06:40:33;;;;;;;16.40;7.97;;;;;;;19.10;90.10;96075.69;5112761;28;20046;-75
2021/07/28 06:43:00;;;;;;;13.90;7.82;;;;;;;19.15;89.03;96067.84;5098692;28;20078;-74
2021/07/28 06:45:27;;;;;;;13.80;7.45;;;;;;;19.20;88.54;96069.47;5088680;28;20047;-74
2021/07/28 06:47:53;;;;;;;11.93;7.10;;;;;;;19.24;88.23;96070.31;5092014;28;20040;-76
2021/07/28 06:50:21;;;;;;;10.63;7.43;;;;;;;19.29;88.76;96053.41;5091484;28;20059;-77
2021/07/28 06:52:48;;;;;;;12.20;8.07;;;;;;;19.40;89.40;96051.50;5092177;28;20047;-76
2021/07/28 06:55:14;;;;;;;16.50;8.68;;;;;;;19.51;89.94;96057.91;5091403;28;20093;-76
2021/07/28 06:57:41;;;;;;;10.43;7.75;;;;;;;19.62;88.97;96057.22;5092099;28;20511;-75
2021/07/28 07:00:08;;;;;;;10.80;7.78;;;;;;;19.67;87.49;96054.88;5111613;28;20047;-74
2021/07/28 07:02:34;;;;;;;10.70;7.00;;;;;;;19.69;87.19;96062.81;5112365;28;20043;-74
2021/07/28 07:05:01;;;;;;;11.52;7.32;;;;;;;19.72;87.62;96062.03;5112153;28;20044;-76
2021/07/28 07:07:28;;;;;;;10.13;7.38;;;;;;;19.81;88.03;96065.25;5111654;28;20048;-76
2021/07/28 07:09:55;;;;;;;8.60;6.97;;;;;;;19.80;86.73;96069.19;5112226;28;20047;-74
2021/07/28 07:12:21;;;;;;;10.75;7.95;;;;;;;19.82;87.19;96064.06;5111590;28;20044;-75
2021/07/28 07:14:48;;;;;;;15.77;8.05;;;;;;;19.86;87.72;96070.41;5112106;28;20113;-75
2021/07/28 07:17:15;;;;;;;14.35;8.40;;;;;;;19.87;88.33;96068.44;5111615;28;20051;-76
2021/07/28 07:19:42;;;;;;;14.25;8.68;;;;;;;19.85;88.64;96066.06;5112090;28;20104;-76
2021/07/28 07:22:09;;;;;;;12.82;8.52;;;;;;;19.91;89.08;96070.06;5111649;28;20051;-74
2021/07/28 07:24:36;;;;;;;10.35;8.02;;;;;;;20.00;89.18;96064.97;5111766;28;20051;-73
2021/07/28 07:27:03;;;;;;;11.15;8.07;;;;;;;20.10;89.71;96065.41;5111387;28;20044;-73
2021/07/28 07:29:30;;;;;;;12.73;8.20;;;;;;;20.20;89.64;96070.19;5110747;28;20047;-74
2021/07/28 07:31:56;;;;;;;12.98;8.13;;;;;;;20.25;89.30;96067.84;5111722;28;20509;-75
2021/07/28 07:34:23;;;;;;;11.48;7.97;;;;;;;20.40;89.26;96070.69;5111079;28;20044;-76
2021/07/28 07:36:49;;;;;;;10.68;7.50;;;;;;;20.48;89.15;96070.38;5111433;28;20040;-76
2021/07/28 07:39:16;;;;;;;10.73;6.85;;;;;;;20.54;88.09;96068.81;5111095;28;20055;-76
2021/07/28 07:41:44;;;;;;;9.80;6.90;;;;;;;20.57;87.54;96067.25;5110700;28;20406;-75
2021/07/28 07:44:10;;;;;;;10.00;7.35;;;;;;;20.66;87.69;96058.56;5109670;28;20051;-75
2021/07/28 07:46:36;;;;;;;13.55;7.72;;;;;;;20.74;87.08;96063.75;5111517;28;20039;-76
2021/07/28 07:49:03;;;;;;;10.00;7.15;;;;;;;20.82;86.29;96057.03;5109931;28;20561;-74
2021/07/28 07:51:30;;;;;;;12.35;7.97;;;;;;;20.93;86.58;96062.59;5111413;28;20052;-75
2021/07/28 07:53:57;;;;;;;8.20;6.35;;;;;;;21.01;85.14;96069.75;5109304;28;20039;-76
2021/07/28 07:56:23;;;;;;;11.25;6.40;;;;;;;21.00;83.94;96062.63;5110785;28;20039;-75
2021/07/28 07:58:51;;;;;;;14.55;7.25;;;;;;;20.97;83.22;96065.38;5110509;28;20039;-75
2021/07/28 08:01:18;;;;;;;8.75;6.82;;;;;;;21.01;83.90;96060.66;5110010;28;20048;-75
2021/07/28 08:03:44;;;;;;;11.27;6.75;;;;;;;20.96;83.83;96061.81;5111655;28;20055;-76
2021/07/28 08:06:11;;;;;;;16.42;7.47;;;;;;;20.94;83.79;96064.19;5110860;28;20044;-74
2021/07/28 08:08:39;;;;;;;14.88;7.25;;;;;;;20.95;82.87;96057.47;5111269;28;20411;-77
2021/07/28 08:11:09;;;;;;;9.18;7.00;;;;;;;20.97;82.77;96051.53;5110799;28;20043;-76
2021/07/28 08:13:36;;;;;;;9.30;6.47;;;;;;;20.96;82.78;96064.59;5111458;28;20043;-77
2021/07/28 08:16:09;;;;;;;12.48;7.07;;;;;;;20.99;83.29;96066.59;5110846;28;20051;-76
2021/07/28 08:18:36;;;;;;;11.65;7.03;;;;;;;20.92;82.86;96068.53;5111339;28;20048;-76
2021/07/28 08:21:04;;;;;;;13.25;7.60;;;;;;;20.90;83.68;96068.94;5110706;28;20048;-76
2021/07/28 08:23:31;;;;;;;11.65;7.05;;;;;;;20.83;83.33;96063.38;5111147;28;20044;-76
2021/07/28 08:25:57;;;;;;;10.30;7.43;;;;;;;20.77;83.16;96062.94;5111054;28;20051;-75
2021/07/28 08:28:23;;;;;;;11.32;7.45;;;;;;;20.69;83.12;96068.88;5070225;28;20040;-75
2021/07/28 08:30:50;;;;;;;14.63;8.60;;;;;;;20.68;83.66;96067.28;5070634;28;20044;-75
2021/07/28 08:33:18;;;;;;;13.18;7.90;;;;;;;20.67;83.73;96073.97;5070166;28;20052;-76
2021/07/28 08:35:44;;;;;;;13.93;8.38;;;;;;;20.68;84.52;96067.28;5070750;28;20048;-73
2021/07/28 08:38:10;;;;;;;13.25;8.40;;;;;;;20.72;84.61;96068.06;5070176;28;20045;-73
2021/07/28 08:40:38;;;;;;;10.05;8.15;;;;;;;20.80;84.92;96066.94;5071726;28;20496;-73
2021/07/28 08:43:05;;;;;;;16.65;8.65;;;;;;;20.83;84.94;96069.72;5073821;28;20175;-74
2021/07/28 08:45:31;;;;;;;13.35;8.93;;;;;;;20.87;84.70;96064.16;5074250;28;20733;-74
2021/07/28 08:47:58;;;;;;;17.98;8.77;;;;;;;20.89;84.13;96066.56;5074377;28;20430;-75
2021/07/28 08:50:28;;;;;;;12.73;8.32;;;;;;;20.94;83.02;96078.03;5073704;28;20605;-74
2021/07/28 08:52:56;;;;;;;13.45;8.82;;;;;;;20.93;83.23;96076.44;5074118;28;20415;-75
2021/07/28 08:55:23;;;;;;;12.40;8.73;;;;;;;20.94;83.72;96071.72;5073445;28;20044;-74
2021/07/28 08:57:49;;;;;;;12.18;8.23;;;;;;;20.96;82.73;96072.88;5074258;28;20044;-75
2021/07/28 09:00:16;;;;;;;14.05;8.82;;;;;;;20.97;82.72;96074.47;5073587;28;20640;-75
2021/07/28 09:02:43;;;;;;;12.88;9.18;;;;;;;20.95;83.13;96076.84;5074052;28;20105;-75
2021/07/28 09:05:10;;;;;;;15.35;9.27;;;;;;;20.84;80.68;96082.34;5073332;28;20053;-75
2021/07/28 09:07:41;;;;;;;17.20;9.57;;;;;;;20.80;82.04;96097.38;5073974;28;20048;-74
2021/07/28 09:10:13;;;;;;;15.50;9.10;;;;;;;20.73;82.64;96097.34;5073383;28;20055;-74
2021/07/28 09:12:42;;;;;;;13.95;9.07;;;;;;;20.69;82.56;96093.78;5073603;28;20132;-74
2021/07/28 09:15:09;;;;;;;16.63;9.63;;;;;;;20.53;82.48;96097.66;5072412;28;20499;-73
2021/07/28 09:17:36;;;;;;;12.75;9.13;;;;;;;20.48;82.82;96103.56;5072482;28;20643;-75
2021/07/28 09:20:05;;;;;;;18.20;9.30;;;;;;;20.40;82.59;96104.66;5072166;28;20495;-73
2021/07/28 09:22:33;;;;;;;14.25;10.05;;;;;;;20.37;82.82;96108.22;5073349;28;20093;-76
2021/07/28 09:25:12;;;;;;;14.55;9.93;;;;;;;20.35;83.68;96102.28;5073504;28;20041;-73
2021/07/28 09:27:41;;;;;;;17.60;9.50;;;;;;;20.34;83.97;96112.53;5101536;28;20039;-75
2021/07/28 09:30:09;;;;;;;21.45;10.57;;;;;;;20.33;84.46;96107.41;5092909;28;20048;-75
2021/07/28 09:32:37;;;;;;;15.32;9.93;;;;;;;20.25;84.92;96105.78;5093722;28;20051;-74
2021/07/28 09:35:04;;;;;;;15.98;9.95;;;;;;;20.21;85.16;96105.00;5093327;28;20052;-75
2021/07/28 09:37:40;;;;;;;18.90;10.82;;;;;;;20.15;85.41;96112.84;5101653;28;20413;-75
2021/07/28 09:40:22;;;;;;;18.63;10.82;;;;;;;20.04;85.71;96107.22;5113496;28;20063;-74
2021/07/28 09:42:48;;;;;;;18.17;11.30;;;;;;;19.99;86.63;96113.16;5113645;28;20047;-74
2021/07/28 09:45:27;;;;;;;17.85;9.65;;;;;;;19.93;86.82;96116.63;5113035;28;20277;-73
2021/07/28 09:47:53;;;;;;;19.85;11.32;;;;;;;19.78;86.67;96118.50;5111300;28;20059;-73
2021/07/28 09:50:20;;;;;;;16.08;10.70;;;;;;;19.61;86.75;96127.44;5109502;28;20051;-74
2021/07/28 09:52:50;;;;;;;23.65;12.27;;;;;;;19.46;87.18;96129.25;5109308;28;20052;-76
2021/07/28 09:55:27;;;;;;;29.05;13.95;;;;;;;19.12;89.17;96128.56;5109196;28;20075;-75
2021/07/28 09:57:55;;;;;;;23.27;14.57;;;;;;;18.82;91.10;96123.91;5107855;28;20047;-76
2021/07/28 10:00:22;;;;;;;26.30;17.08;;;;;;;18.62;92.79;96125.19;5088666;28;20040;-74
2021/07/28 10:02:48;;;;;;;27.63;17.63;;;;;;;18.52;94.00;96124.69;5089267;28;20071;-75
2021/07/28 10:05:19;;;;;;;28.05;17.98;;;;;;;18.39;94.35;96134.38;5088919;28;20151;-74
2021/07/28 10:07:48;;;;;;;27.50;17.42;;;;;;;18.28;94.90;96135.41;5099641;28;20118;-75
2021/07/28 10:10:16;;;;;;;16.45;11.65;;;;;;;18.24;94.55;96143.63;5109522;28;20070;-75
2021/07/28 10:12:46;;;;;;;20.60;13.32;;;;;;;18.22;94.90;96154.22;5110050;28;20119;-76
2021/07/28 10:15:13;;;;;;;23.45;15.30;;;;;;;18.17;95.51;96157.31;5109727;28;20055;-75
2021/07/28 10:17:40;;;;;;;22.15;14.60;;;;;;;18.16;95.52;96167.50;5109958;28;20590;-74
2021/07/28 10:20:10;;;;;;;19.77;13.98;;;;;;;18.12;95.23;96187.94;5109518;28;20063;-75
2021/07/28 10:22:36;;;;;;;18.75;14.00;;;;;;;18.06;95.00;96205.94;5109682;28;20048;-76
2021/07/28 10:25:07;;;;;;;23.33;13.93;;;;;;;18.00;94.64;96208.22;5109391;28;20055;-75
2021/07/28 10:27:40;;;;;;;19.08;12.23;;;;;;;17.93;94.52;96214.41;5109589;28;20096;-76
2021/07/28 10:30:10;;;;;;;15.98;11.25;;;;;;;17.90;94.75;96220.63;5089123;28;20131;-75
2021/07/28 10:32:37;;;;;;;13.35;8.30;;;;;;;17.77;92.99;96232.22;5089588;28;20048;-76
2021/07/28 10:35:24;;;;;;;11.57;7.78;;;;;;;17.54;91.70;96234.94;5088907;28;20055;-75
2021/07/28 10:37:52;;;;;;;10.73;6.45;;;;;;;17.39;91.51;96223.69;5099821;28;20126;-75
2021/07/28 10:40:33;;;;;;;8.23;5.93;;;;;;;17.07;90.01;96219.50;5108991;28;20410;-75
2021/07/28 10:43:03;;;;;;;10.70;6.82;;;;;;;16.98;91.92;96229.94;5109459;28;20054;-76
2021/07/28 10:46:03;;;;;;;12.57;7.97;;;;;;;17.04;93.37;96225.75;5109145;28;20054;-75
2021/07/28 10:48:52;;;;;;;15.30;9.10;;;;;;;17.10;94.54;96224.28;5109093;28;20043;-76
2021/07/28 10:51:51;;;;;;;13.30;9.52;;;;;;;17.21;95.29;96217.03;5108848;28;20748;-75
2021/07/28 10:54:17;;;;;;;15.70;10.48;;;;;;;17.28;95.50;96206.19;5108834;28;20131;-76
2021/07/28 10:57:31;;;;;;;18.13;11.80;;;;;;;17.42;95.73;96203.66;5109095;28;20460;-75
2021/07/28 10:59:57;;;;;;;17.38;11.18;;;;;;;17.48;96.20;96202.19;5063266;28;20035;-75
2021/07/28 11:02:24;;;;;;;14.80;10.48;;;;;;;17.60;96.17;96212.25;5108619;28;20149;-74
2021/07/28 11:05:18;;;;;;;16.35;11.48;;;;;;;17.77;96.33;96211.00;5109065;28;20054;-75
2021/07/28 11:08:20;;;;;;;15.25;10.70;;;;;;;17.85;95.94;96203.63;5108818;28;20055;-74
2021/07/28 11:10:52;;;;;;;22.45;13.30;;;;;;;17.97;96.95;96204.25;5109140;28;20505;-75
2021/07/28 11:13:21;;;;;;;20.35;13.48;;;;;;;18.16;97.76;96202.53;5108510;28;20094;-74
2021/07/28 11:15:53;;;;;;;17.70;11.27;;;;;;;18.26;97.28;96215.69;5108805;28;20056;-75
2021/07/28 11:18:32;;;;;;;14.10;10.87;;;;;;;18.19;94.71;96218.34;5108493;28;20051;-75
2021/07/28 11:21:08;;;;;;;14.32;9.88;;;;;;;18.20;94.71;96217.97;5109169;28;20101;-73
2021/07/28 11:23:47;;;;;;;15.25;11.45;;;;;;;18.14;94.65;96218.66;5109099;28;20040;-74
2021/07/28 11:26:24;;;;;;;23.42;13.43;;;;;;;18.22;95.24;96220.38;5107990;28;20056;-74
2021/07/28 11:28:53;;;;;;;18.73;11.98;;;;;;;18.27;95.26;96222.81;5108752;28;20076;-74
2021/07/28 11:31:34;;;;;;;21.02;11.70;;;;;;;18.20;93.75;96220.72;5108618;28;20520;-75